Pagina principale
METAR-TAF:

METAR-TAF

Aeroporti :

Gloucester, Inghilterra

latitudine: 51-54N, longitudine: 002-10W, altezza: 29 m

Osservazione

Il bollettino è stato emesso 8 ore e 9 minuti fa, alle 14:50 UTC
Vento 6 kt da est/sud-est
Temperature 25°C
Umidità 30%
Pressione 1025 hPa
Visibilità 10 km o più
nessuna nube inferiore a 1500 m e nessun cumulonembo

METAR: EGBJ 291450Z 12006KT CAVOK 25/06 Q1025

Ora: 23:59 (22:59 UTC)

Previsione

Il bollettino è stato emesso 8 ore e 55 minuti fa, alle 14:04 UTC
Previsione valida dal 29 alle 15 UTC al 29 alle 24 UTC
Vento 6 kt da est/sud-est
Visibilità 10 km o più
nessuna nube inferiore a 1500 m e nessun cumulonembo

TAF: EGBJ 291404Z 2915/2924 12006KT CAVOK

Osservazioni e previsioni meteorologiche di più di 4000 aeroporti (messaggi METAR e TAF).

Le stazioni disponibili sono rappresentate dai dischi gialli e rossi sulla carta.

Puntare il mouse per vedere il nome della stazione.

Clicca sopra per visualizzare le osservazioni e previsioni meteorologiche.

Per cambiare la mappa : fare clic sui pulsanti verdi con una croce nera per ingrandire, il pulsante verde con un trattino per diminuire, o sulla freccia verde per le mappe adiacenti.


METAR-TAF: